Pagrindinis puslapis
METAR-TAF:

METAR-TAF

Oro uostai :

Abadanas, Iranas

platuma: 30-22N, ilguma: 048-15E, Aukštis: 3 m

Dabartinis oras

Ataskaita buvo paskelbta 49 minutes, ne 08:00 UTC
Vėjas 8 kt iš Pietryčių
Temperatūra 47°C
Drėgmė 15%
Slėgis 998 hPa
Matomumas 10 km arba daugiau
nėra debesų žemiau 1500 m ir nėra kamuolinių lietaus debesų

METAR: OIAA 230800Z 14008KT CAVOK 47/14 Q0998

Laikas: 13:19 (08:49 UTC)

Prognozė

Ataskaita buvo paskelbta 2 valandos ir 59 minutes, ne 05:50 UTC
Prognozė galioja nuo 23 metu 06 UTC su 24 metu 12 UTC
Vėjas 8 kt iš Pietų/Pietvakarių
Matomumas: 7000 m
Laikinai
nuo 23 metu 12 UTC su 23 metu 16 UTC
Vėjas 18 kt iš Pietų/Pietryčių
Laikinai
nuo 24 metu 00 UTC su 24 metu 05 UTC
Matomumas: 5000 m
migla
Laikinai
nuo 24 metu 06 UTC su 24 metu 12 UTC
Vėjas 18 kt iš Šiaurės Vakarų

TAF: OIAA 230550Z 2306/2412 20008KT 7000 NSC TEMPO 2312/2316 16018KT TEMPO 2400/2405 5000 HZ TEMPO 2406/2412 32018KT

Orai ataskaitas ir orų prognozės (METAR, TAF).

turimą stotys yra geltonos ir raudonos taškus žemėlapyje.

Perkelti pele per norėdami pamatyti stoties vardą.

Tada spustelėkite, norėdami matyti oro stebėjimo ir prognozės.

Norėdami pakeisti žemėlapį: spustelėkite ant žalios mygtukų su juodo kryžiaus žemyn,; žalią mygtuką su brūkšneliu, jei norite nutolinti; arba žalių rodyklių gretimoms žemėlapius.


METAR-TAF: